createdAt,value
2023-04-13T00:00:36.500Z,15.13
2023-04-13T00:03:11.470Z,15.58
2023-04-13T00:05:47.017Z,15.58
2023-04-13T00:08:21.894Z,17.52
2023-04-13T00:10:55.690Z,16.52
2023-04-13T00:13:28.836Z,16.32
2023-04-13T00:16:02.964Z,16.52
2023-04-13T00:18:36.205Z,17.70
2023-04-13T00:21:12.279Z,15.63
2023-04-13T00:23:45.674Z,15.65
2023-04-13T00:26:20.701Z,17.40
2023-04-13T00:28:53.772Z,16.45
2023-04-13T00:31:27.143Z,17.57
2023-04-13T00:34:00.845Z,15.60
2023-04-13T00:36:34.492Z,15.58
2023-04-13T00:39:08.253Z,15.32
2023-04-13T00:41:43.234Z,15.88
2023-04-13T00:44:19.375Z,14.90
2023-04-13T00:46:54.539Z,17.40
2023-04-13T00:49:28.047Z,14.55
2023-04-13T00:52:02.944Z,14.68
2023-04-13T00:54:37.415Z,14.98
2023-04-13T00:57:11.744Z,15.43
2023-04-13T00:59:45.259Z,14.18
2023-04-13T01:02:18.638Z,14.38
2023-04-13T01:04:53.076Z,14.85
2023-04-13T01:07:29.807Z,14.07
2023-04-13T01:10:07.787Z,15.43
2023-04-13T01:12:45.242Z,15.23
2023-04-13T01:15:20.292Z,13.75
2023-04-13T01:17:57.252Z,14.53
2023-04-13T01:20:33.404Z,13.62
2023-04-13T01:23:10.022Z,16.48
2023-04-13T01:25:47.444Z,14.13
2023-04-13T01:28:22.341Z,14.87
2023-04-13T01:30:57.643Z,14.68
2023-04-13T01:33:32.810Z,15.38
2023-04-13T01:36:10.608Z,14.55
2023-04-13T01:38:43.670Z,17.15
2023-04-13T01:41:18.603Z,14.87
2023-04-13T01:43:51.679Z,15.18
2023-04-13T01:46:29.378Z,15.32
2023-04-13T01:49:11.496Z,16.97
2023-04-13T01:51:47.465Z,14.93
2023-04-13T01:54:24.683Z,15.30
2023-04-13T01:57:00.425Z,16.37
2023-04-13T01:59:33.545Z,16.87
2023-04-13T02:02:07.046Z,17.48
2023-04-13T02:04:40.361Z,18.55
2023-04-13T02:07:13.784Z,19.37
2023-04-13T02:09:48.487Z,17.20
2023-04-13T02:12:22.180Z,16.15
2023-04-13T02:14:56.752Z,16.40
2023-04-13T02:17:30.327Z,19.10
2023-04-13T02:20:09.090Z,17.90
2023-04-13T02:22:44.039Z,17.85
2023-04-13T02:25:17.432Z,16.82
2023-04-13T02:27:51.744Z,18.25
2023-04-13T02:30:25.023Z,17.45
2023-04-13T02:32:58.558Z,21.27
2023-04-13T02:35:32.638Z,19.35
2023-04-13T02:38:07.337Z,18.70
2023-04-13T02:40:40.469Z,21.35
2023-04-13T02:43:13.944Z,19.70
2023-04-13T02:45:47.429Z,19.12
2023-04-13T02:48:22.321Z,22.10
2023-04-13T02:50:56.403Z,21.15
2023-04-13T02:53:31.468Z,20.35
2023-04-13T02:56:06.814Z,18.80
2023-04-13T02:58:41.565Z,18.92
2023-04-13T03:01:17.184Z,17.00
2023-04-13T03:03:50.380Z,18.45
2023-04-13T03:06:26.173Z,17.40
2023-04-13T03:09:00.939Z,17.30
2023-04-13T03:11:35.697Z,18.90
2023-04-13T03:14:15.640Z,19.67
2023-04-13T03:16:49.054Z,18.60
2023-04-13T03:19:23.292Z,20.15
2023-04-13T03:21:56.526Z,19.27
2023-04-13T03:24:32.506Z,18.67
2023-04-13T03:27:07.527Z,19.10
2023-04-13T03:29:42.428Z,18.70
2023-04-13T03:32:17.558Z,18.07
2023-04-13T03:34:52.536Z,18.73
2023-04-13T03:37:28.251Z,17.98
2023-04-13T03:40:02.507Z,17.12
2023-04-13T03:42:37.327Z,17.17
2023-04-13T03:45:12.295Z,17.15
2023-04-13T03:47:46.038Z,16.23
2023-04-13T03:50:19.471Z,16.80
2023-04-13T03:52:53.303Z,17.05
2023-04-13T03:55:27.153Z,16.35
2023-04-13T03:58:02.580Z,18.05
2023-04-13T04:00:36.266Z,15.32
2023-04-13T04:03:11.225Z,16.55
2023-04-13T04:05:49.423Z,14.93
2023-04-13T04:08:22.555Z,15.18
2023-04-13T04:10:57.467Z,17.37
2023-04-13T04:13:32.066Z,15.50
2023-04-13T04:16:11.626Z,16.80
2023-04-13T04:18:46.758Z,14.40
2023-04-13T04:21:22.112Z,14.53
2023-04-13T04:23:55.310Z,15.15
2023-04-13T04:26:30.165Z,15.13
2023-04-13T04:29:04.746Z,14.90
2023-04-13T04:31:40.378Z,14.58
2023-04-13T04:34:16.304Z,14.30
2023-04-13T04:36:52.159Z,15.25
2023-04-13T04:39:28.203Z,15.10
2023-04-13T04:42:04.298Z,14.38
2023-04-13T04:44:37.907Z,15.25
2023-04-13T04:47:15.517Z,14.40
2023-04-13T04:49:50.370Z,13.60
2023-04-13T04:52:25.096Z,14.50
2023-04-13T04:54:59.763Z,16.27
2023-04-13T04:57:34.213Z,14.28
2023-04-13T05:00:15.700Z,13.68
2023-04-13T05:02:51.056Z,14.43
2023-04-13T05:05:27.679Z,15.23
2023-04-13T05:08:01.328Z,14.33
2023-04-13T05:10:35.377Z,15.00
2023-04-13T05:13:09.026Z,13.53
2023-04-13T05:15:42.217Z,14.47
2023-04-13T05:18:17.025Z,14.18
2023-04-13T05:20:50.376Z,13.22
2023-04-13T05:23:23.881Z,14.55
2023-04-13T05:25:59.228Z,12.85
2023-04-13T05:28:34.278Z,12.13
2023-04-13T05:31:11.231Z,14.28
2023-04-13T05:33:46.562Z,12.45
2023-04-13T05:36:20.494Z,11.78
2023-04-13T05:38:54.636Z,11.93
2023-04-13T05:41:28.643Z,13.10
2023-04-13T05:44:02.214Z,14.20
2023-04-13T05:46:36.587Z,12.63
2023-04-13T05:49:11.773Z,13.72
2023-04-13T05:51:45.204Z,12.75
2023-04-13T05:54:18.635Z,13.68
2023-04-13T05:56:53.350Z,13.08
2023-04-13T05:59:27.484Z,13.48
2023-04-13T06:02:03.384Z,16.77
2023-04-13T06:04:37.157Z,12.95
2023-04-13T06:07:10.738Z,14.35
2023-04-13T06:09:45.542Z,13.58
2023-04-13T06:12:19.577Z,12.68
2023-04-13T06:14:52.916Z,13.90
2023-04-13T06:17:26.048Z,13.58
2023-04-13T06:19:59.537Z,11.88
2023-04-13T06:22:34.207Z,11.53
2023-04-13T06:27:51.494Z,10.48
2023-04-13T06:30:25.709Z,10.03
2023-04-13T06:33:00.674Z,10.48
2023-04-13T06:35:34.173Z,9.93
2023-04-13T06:38:08.556Z,10.98
2023-04-13T06:40:43.544Z,10.63
2023-04-13T06:43:28.767Z,10.60
2023-04-13T06:46:00.376Z,10.82
2023-04-13T06:48:34.731Z,9.85
2023-04-13T06:51:08.659Z,10.43
2023-04-13T06:53:42.259Z,11.12
2023-04-13T06:56:15.596Z,10.23
2023-04-13T06:58:49.059Z,10.95
2023-04-13T07:01:22.387Z,10.13
2023-04-13T07:03:55.927Z,10.55
2023-04-13T07:09:11.699Z,9.05
2023-04-13T07:11:45.713Z,9.13
2023-04-13T07:14:20.820Z,9.50
2023-04-13T07:16:54.505Z,8.58
2023-04-13T07:19:28.202Z,8.83
2023-04-13T07:22:04.390Z,7.08
2023-04-13T07:24:38.708Z,7.78
2023-04-13T07:27:13.548Z,7.33
2023-04-13T07:29:47.152Z,6.78
2023-04-13T07:32:24.481Z,5.58
2023-04-13T07:34:59.387Z,4.92
2023-04-13T07:37:34.530Z,6.25
2023-04-13T07:40:11.697Z,5.12
2023-04-13T07:42:47.359Z,5.03
2023-04-13T07:45:21.278Z,4.85
2023-04-13T07:47:54.910Z,4.20
2023-04-13T07:50:28.117Z,3.98
2023-04-13T07:53:01.800Z,4.08
2023-04-13T07:55:35.318Z,4.12
2023-04-13T07:58:09.251Z,3.75
2023-04-13T08:00:42.747Z,3.20
2023-04-13T08:03:16.830Z,4.08
2023-04-13T08:05:52.088Z,3.62
2023-04-13T08:08:26.531Z,4.03
2023-04-13T08:10:59.696Z,3.15
2023-04-13T08:13:33.071Z,2.35
2023-04-13T08:18:48.497Z,3.58
2023-04-13T08:21:23.931Z,3.15
2023-04-13T08:23:57.500Z,3.35
2023-04-13T08:26:30.963Z,2.98
2023-04-13T08:29:05.724Z,2.80
2023-04-13T08:31:41.099Z,3.65
2023-04-13T08:34:14.598Z,4.05
2023-04-13T08:36:47.949Z,2.83
2023-04-13T08:39:22.306Z,3.17
2023-04-13T08:41:57.023Z,3.77
2023-04-13T08:44:32.827Z,2.90
2023-04-13T08:47:06.726Z,3.20
2023-04-13T08:49:42.023Z,2.80
2023-04-13T08:52:20.648Z,3.33
2023-04-13T08:54:57.739Z,3.10
2023-04-13T08:57:35.657Z,2.45
2023-04-13T09:00:14.034Z,2.72
2023-04-13T09:03:02.962Z,2.62
2023-04-13T09:05:28.402Z,2.77
2023-04-13T09:08:06.702Z,2.77
2023-04-13T09:10:42.334Z,3.10
2023-04-13T09:13:19.192Z,2.70
2023-04-13T09:15:53.136Z,3.67
2023-04-13T09:18:34.628Z,2.70
2023-04-13T09:21:10.151Z,2.62
2023-04-13T09:23:45.072Z,2.72
2023-04-13T09:26:18.537Z,2.67
2023-04-13T09:28:55.543Z,2.67
2023-04-13T09:31:28.530Z,3.00
2023-04-13T09:34:02.254Z,2.72
2023-04-13T09:36:41.167Z,2.50
2023-04-13T09:39:11.991Z,2.58
2023-04-13T09:41:47.082Z,2.65
2023-04-13T09:44:23.444Z,3.40
2023-04-13T09:47:07.056Z,2.60
2023-04-13T09:49:41.608Z,2.20
2023-04-13T09:52:22.913Z,1.70
2023-04-13T09:54:58.806Z,2.50
2023-04-13T09:57:34.508Z,1.80
2023-04-13T10:00:14.361Z,1.87
2023-04-13T10:02:49.540Z,2.33
2023-04-13T10:05:26.878Z,2.30
2023-04-13T10:08:00.539Z,3.00
2023-04-13T10:10:34.526Z,2.00
2023-04-13T10:13:11.762Z,2.20
2023-04-13T10:15:57.452Z,2.17
2023-04-13T10:18:35.128Z,1.95
2023-04-13T10:21:09.492Z,2.20
2023-04-13T10:23:43.579Z,2.35
2023-04-13T10:26:17.702Z,2.00
2023-04-13T10:28:51.135Z,1.98
2023-04-13T10:31:26.169Z,2.33
2023-04-13T10:34:01.045Z,2.52
2023-04-13T10:36:41.951Z,2.45
2023-04-13T10:39:18.299Z,2.08
2023-04-13T10:42:01.203Z,2.30
2023-04-13T10:44:48.447Z,2.37
2023-04-13T10:47:25.872Z,2.22
2023-04-13T10:50:00.385Z,1.70
2023-04-13T10:52:34.215Z,2.95
2023-04-13T10:55:11.637Z,1.87
2023-04-13T10:57:45.499Z,2.10
2023-04-13T11:00:27.314Z,2.20
2023-04-13T11:02:59.671Z,1.80
2023-04-13T11:05:33.738Z,2.20
2023-04-13T11:08:09.205Z,2.47
2023-04-13T11:10:42.508Z,1.98
2023-04-13T11:13:16.485Z,1.70
2023-04-13T11:15:51.980Z,2.30
2023-04-13T11:18:28.982Z,2.90
2023-04-13T11:21:06.011Z,2.45
2023-04-13T11:23:38.582Z,2.10
2023-04-13T11:26:12.095Z,2.35
2023-04-13T11:28:47.192Z,2.20
2023-04-13T11:31:21.544Z,2.80
2023-04-13T11:33:55.066Z,2.80
2023-04-13T11:36:30.573Z,3.15
2023-04-13T11:39:06.725Z,2.50
2023-04-13T11:41:44.581Z,2.10
2023-04-13T11:44:19.508Z,2.22
2023-04-13T11:46:56.490Z,2.33
2023-04-13T11:52:02.362Z,2.40
2023-04-13T11:54:35.913Z,2.27
2023-04-13T11:57:09.386Z,2.00
2023-04-13T11:59:42.880Z,2.85
2023-04-13T12:02:21.726Z,2.02
2023-04-13T12:04:51.622Z,1.90
2023-04-13T12:07:26.571Z,1.50
2023-04-13T12:10:05.438Z,1.90
2023-04-13T12:15:24.341Z,1.52
2023-04-13T12:17:57.259Z,1.95
2023-04-13T12:20:26.633Z,1.40
2023-04-13T12:23:08.610Z,1.40
2023-04-13T12:25:36.413Z,1.60
2023-04-13T12:28:09.866Z,1.55
2023-04-13T12:30:43.325Z,1.95
2023-04-13T12:33:16.744Z,1.77
2023-04-13T12:35:50.034Z,2.85
2023-04-13T12:38:23.279Z,1.70
2023-04-13T12:41:00.500Z,1.87
2023-04-13T12:43:33.870Z,2.22
2023-04-13T12:46:07.277Z,1.98
2023-04-13T12:48:40.673Z,2.20
2023-04-13T12:51:14.167Z,1.57
2023-04-13T12:53:47.581Z,1.67
2023-04-13T12:56:21.066Z,1.82
2023-04-13T12:58:54.624Z,1.55
2023-04-13T13:01:28.448Z,2.10
2023-04-13T13:04:02.138Z,1.72
2023-04-13T13:06:35.922Z,2.27
2023-04-13T13:09:09.644Z,2.12
2023-04-13T13:11:42.858Z,2.22
2023-04-13T13:14:15.954Z,1.87
2023-04-13T13:16:50.230Z,2.12
2023-04-13T13:19:23.693Z,1.85
2023-04-13T13:21:57.187Z,2.00
2023-04-13T13:24:31.279Z,1.72
2023-04-13T13:29:39.764Z,2.25
2023-04-13T13:32:13.294Z,1.80
2023-04-13T13:34:46.867Z,2.10
2023-04-13T13:37:20.300Z,2.05
2023-04-13T13:39:54.126Z,2.12
2023-04-13T13:42:32.465Z,2.10
2023-04-13T13:45:02.350Z,2.08
2023-04-13T13:47:36.154Z,2.08
2023-04-13T13:50:11.870Z,2.20
2023-04-13T13:53:01.570Z,2.40
2023-04-13T13:55:24.567Z,2.37
2023-04-13T13:57:57.930Z,2.00
2023-04-13T14:00:31.373Z,2.67
2023-04-13T14:03:05.137Z,2.20
2023-04-13T14:05:38.636Z,3.87
2023-04-13T14:08:12.320Z,1.90
2023-04-13T14:10:47.522Z,2.10
2023-04-13T14:13:21.382Z,2.70
2023-04-13T14:15:54.713Z,2.35
2023-04-13T14:18:28.248Z,3.45
2023-04-13T14:23:43.545Z,5.03
2023-04-13T14:26:16.959Z,2.50
2023-04-13T14:28:51.167Z,2.37
2023-04-13T14:31:24.809Z,3.22
2023-04-13T14:33:58.303Z,2.60
2023-04-13T14:36:32.429Z,3.50
2023-04-13T14:39:06.239Z,2.35
2023-04-13T14:41:39.437Z,2.33
2023-04-13T14:44:12.617Z,2.67
2023-04-13T14:46:46.218Z,2.25
2023-04-13T14:49:19.738Z,2.72
2023-04-13T14:51:53.002Z,2.10
2023-04-13T14:54:26.447Z,2.50
2023-04-13T14:56:59.814Z,2.47
2023-04-13T14:59:32.934Z,2.72
2023-04-13T15:02:06.646Z,2.02
2023-04-13T15:04:42.232Z,2.37
2023-04-13T15:07:15.621Z,2.30
2023-04-13T15:09:49.051Z,2.25
2023-04-13T15:12:22.860Z,2.15
2023-04-13T15:14:56.894Z,2.12
2023-04-13T15:17:30.790Z,2.10
2023-04-13T15:20:07.738Z,2.62
2023-04-13T15:22:41.475Z,2.27
2023-04-13T15:25:15.018Z,2.70
2023-04-13T15:27:51.086Z,2.33
2023-04-13T15:30:28.728Z,2.33
2023-04-13T15:33:03.205Z,1.95
2023-04-13T15:35:38.167Z,2.50
2023-04-13T15:38:11.720Z,2.15
2023-04-13T15:40:44.836Z,2.22
2023-04-13T15:43:18.723Z,2.10
2023-04-13T15:45:51.872Z,2.60
2023-04-13T15:48:25.227Z,2.00
2023-04-13T15:51:02.301Z,2.52
2023-04-13T15:53:35.610Z,2.20
2023-04-13T15:56:11.867Z,1.80
2023-04-13T15:58:45.171Z,1.80
2023-04-13T16:01:18.494Z,2.37
2023-04-13T16:03:52.086Z,1.70
2023-04-13T16:06:26.108Z,2.20
2023-04-13T16:08:59.482Z,1.87
2023-04-13T16:11:32.958Z,1.90
2023-04-13T16:14:07.968Z,1.80
2023-04-13T16:16:46.793Z,1.72
2023-04-13T16:19:21.255Z,1.80
2023-04-13T16:21:54.588Z,2.00
2023-04-13T16:24:27.933Z,2.35
2023-04-13T16:27:04.276Z,1.40
2023-04-13T16:29:37.557Z,2.08
2023-04-13T16:32:11.160Z,1.85
2023-04-13T16:34:44.485Z,1.92
2023-04-13T16:37:17.827Z,1.77
2023-04-13T16:39:51.208Z,1.40
2023-04-13T16:42:24.461Z,1.47
2023-04-13T16:44:57.752Z,1.52
2023-04-13T16:47:32.388Z,2.02
2023-04-13T16:50:05.724Z,1.90
2023-04-13T16:52:40.147Z,1.92
2023-04-13T16:55:15.735Z,2.58
2023-04-13T16:57:48.857Z,1.80
2023-04-13T17:00:23.695Z,1.50
2023-04-13T17:02:58.420Z,1.77
2023-04-13T17:05:32.091Z,1.65
2023-04-13T17:08:07.609Z,2.22
2023-04-13T17:10:41.048Z,2.15
2023-04-13T17:13:14.193Z,1.62
2023-04-13T17:15:47.295Z,2.17
2023-04-13T17:18:20.868Z,2.22
2023-04-13T17:20:57.217Z,2.37
2023-04-13T17:23:30.418Z,2.15
2023-04-13T17:26:04.100Z,1.75
2023-04-13T17:28:37.354Z,1.87
2023-04-13T17:31:12.660Z,1.50
2023-04-13T17:33:45.626Z,2.08
2023-04-13T17:36:18.895Z,1.82
2023-04-13T17:38:52.425Z,1.70
2023-04-13T17:41:26.123Z,1.72
2023-04-13T17:43:59.084Z,1.87
2023-04-13T17:46:32.496Z,2.05
2023-04-13T17:49:05.679Z,2.20
2023-04-13T17:51:38.978Z,1.95
2023-04-13T17:54:12.462Z,1.95
2023-04-13T17:56:45.951Z,2.02
2023-04-13T17:59:18.983Z,1.77
2023-04-13T18:01:53.054Z,2.00
2023-04-13T18:04:26.681Z,1.80
2023-04-13T18:07:00.024Z,1.72
2023-04-13T18:09:33.278Z,1.80
2023-04-13T18:12:09.512Z,1.90
2023-04-13T18:14:42.509Z,1.30
2023-04-13T18:17:16.541Z,1.72
2023-04-13T18:19:51.053Z,0.95
2023-04-13T18:22:24.632Z,1.57
2023-04-13T18:24:57.808Z,2.20
2023-04-13T18:27:31.892Z,1.40
2023-04-13T18:30:05.274Z,2.47
2023-04-13T18:32:52.185Z,2.65
2023-04-13T18:38:28.574Z,1.65
2023-04-13T18:41:07.735Z,2.00
2023-04-13T18:43:46.294Z,1.82
2023-04-13T18:46:21.529Z,2.17
2023-04-13T18:48:54.904Z,1.80
2023-04-13T18:51:37.904Z,1.37
2023-04-13T18:54:12.338Z,1.52
2023-04-13T18:56:45.872Z,1.70
2023-04-13T18:59:19.156Z,1.50
2023-04-13T19:02:01.347Z,1.98
2023-04-13T19:04:35.775Z,1.50
2023-04-13T19:07:09.774Z,1.87
2023-04-13T19:09:42.870Z,2.00
2023-04-13T19:12:27.182Z,1.67
2023-04-13T19:15:05.454Z,1.50
2023-04-13T19:17:42.108Z,1.75
2023-04-13T19:20:19.656Z,1.95
2023-04-13T19:22:54.238Z,1.92
2023-04-13T19:25:27.634Z,1.90
2023-04-13T19:28:01.695Z,1.37
2023-04-13T19:30:35.359Z,1.80
2023-04-13T19:33:08.727Z,1.57
2023-04-13T19:35:42.025Z,1.30
2023-04-13T19:38:21.323Z,1.40
2023-04-13T19:40:57.927Z,1.37
2023-04-13T19:43:31.008Z,1.10
2023-04-13T19:46:16.772Z,1.40
2023-04-13T19:49:00.248Z,1.52
2023-04-13T19:51:33.921Z,1.83
2023-04-13T19:54:13.662Z,1.55
2023-04-13T19:56:46.761Z,1.40
2023-04-13T19:59:19.965Z,1.40
2023-04-13T20:01:53.686Z,1.45
2023-04-13T20:04:27.332Z,1.52
2023-04-13T20:07:00.875Z,1.17
2023-04-13T20:09:34.173Z,1.20
2023-04-13T20:12:09.033Z,1.30
2023-04-13T20:14:42.633Z,1.10
2023-04-13T20:17:16.395Z,1.40
2023-04-13T20:19:49.986Z,1.85
2023-04-13T20:22:23.587Z,1.12
2023-04-13T20:24:56.909Z,1.20
2023-04-13T20:27:30.780Z,1.20
2023-04-13T20:30:04.080Z,1.32
2023-04-13T20:32:37.003Z,1.40
2023-04-13T20:35:11.540Z,1.32
2023-04-13T20:37:44.900Z,1.60
2023-04-13T20:40:18.631Z,1.35
2023-04-13T20:42:52.038Z,1.02
2023-04-13T20:45:25.967Z,1.52
2023-04-13T20:50:35.869Z,1.40
2023-04-13T20:53:10.034Z,1.72
2023-04-13T20:55:43.226Z,3.05
2023-04-13T20:58:16.331Z,1.55
2023-04-13T21:00:51.022Z,1.50
2023-04-13T21:03:25.256Z,1.20
2023-04-13T21:05:58.546Z,1.60
2023-04-13T21:08:33.933Z,1.10
2023-04-13T21:11:07.268Z,1.75
2023-04-13T21:13:40.561Z,1.42
2023-04-13T21:16:14.616Z,1.37
2023-04-13T21:18:48.094Z,1.22
2023-04-13T21:21:23.462Z,1.30
2023-04-13T21:23:58.600Z,1.00
2023-04-13T21:26:32.169Z,1.30
2023-04-13T21:29:09.106Z,1.50
2023-04-13T21:31:42.202Z,1.98
2023-04-13T21:34:15.696Z,1.47
2023-04-13T21:36:51.922Z,1.22
2023-04-13T21:39:25.650Z,1.75
2023-04-13T21:41:58.909Z,1.07
2023-04-13T21:44:32.816Z,1.05
2023-04-13T21:47:06.272Z,1.60
2023-04-13T21:49:39.709Z,1.25
2023-04-13T21:52:16.237Z,1.67
2023-04-13T21:54:51.538Z,1.45
2023-04-13T21:57:24.352Z,1.22
2023-04-13T21:59:57.700Z,1.17
2023-04-13T22:02:31.266Z,1.07
2023-04-13T22:05:04.878Z,1.90
2023-04-13T22:07:43.218Z,1.80
2023-04-13T22:10:15.665Z,1.75
2023-04-13T22:12:48.934Z,1.52
2023-04-13T22:15:22.142Z,1.20
2023-04-13T22:17:55.520Z,1.57
2023-04-13T22:20:28.746Z,2.98
2023-04-13T22:23:05.934Z,1.60
2023-04-13T22:25:39.009Z,2.05
2023-04-13T22:28:12.396Z,1.37
2023-04-13T22:30:45.811Z,2.27
2023-04-13T22:33:19.207Z,1.37
2023-04-13T22:35:52.779Z,1.25
2023-04-13T22:38:26.304Z,1.20
2023-04-13T22:40:59.836Z,1.70
2023-04-13T22:43:33.192Z,1.57
2023-04-13T22:46:06.618Z,1.50
2023-04-13T22:48:39.664Z,1.40
2023-04-13T22:51:12.725Z,1.50
2023-04-13T22:53:45.964Z,1.50
2023-04-13T22:56:19.152Z,1.90
2023-04-13T22:58:52.365Z,1.60
2023-04-13T23:01:25.859Z,1.50
2023-04-13T23:03:59.528Z,1.40
2023-04-13T23:06:32.979Z,1.90
2023-04-13T23:09:06.280Z,1.60
2023-04-13T23:11:39.808Z,1.70
2023-04-13T23:14:13.222Z,1.70
2023-04-13T23:16:46.631Z,1.82
2023-04-13T23:19:20.567Z,2.08
2023-04-13T23:21:53.860Z,3.12
2023-04-13T23:24:28.383Z,2.05
2023-04-13T23:27:01.702Z,1.60
2023-04-13T23:29:35.085Z,2.00
2023-04-13T23:32:08.974Z,2.52
2023-04-13T23:34:42.223Z,2.20
2023-04-13T23:37:15.566Z,2.52
2023-04-13T23:39:48.880Z,2.10
2023-04-13T23:42:22.048Z,2.70
2023-04-13T23:44:54.910Z,3.10
2023-04-13T23:47:28.849Z,2.52
2023-04-13T23:50:02.734Z,2.08
2023-04-13T23:52:36.092Z,2.40
2023-04-13T23:55:10.882Z,2.80
2023-04-13T23:57:44.092Z,3.08
